Latest Weather Observations for McCluer Island

IDD60801

Issued at 8:35 am CST Tuesday 2 September 2014 (issued every 30 minutes, with the page automatically refreshed every 10 minutes)

About weather observations | Map of weather stations | Latest weather observations for NT | Other Formats
Station Details ID: 014274 Name: MCCLUER ISLAND Lat: -11.05 Lon: 132.98 Height: 1.4 m
Data from the previous 72 hours. | See also: Recent months at McCluer Island
Date/Time
CST
Temp
°C
App
Temp
°C
Dew
Point
Rel
Hum
%
Delta-T
°C
Wind Press
QNH
hPa
Press
MSL
hPa
Rain
since 9 am
mm
Dir
 
Spd
km/h
Gust
km/h
Spd
kts
Gust
kts
02/08:30am 25.1 25.5 21.8 82 2.2 ESE 22 26 12 14 1015.1 - 0.0
02/08:00am 24.7 24.8 21.2 81 2.3 ESE 22 26 12 14 1014.7 - 0.0
02/07:30am 24.4 24.7 21.5 84 1.9 ESE 22 24 12 13 1014.4 - 0.0
02/07:00am 23.7 24.0 20.8 84 1.9 ESE 20 24 11 13 1014.2 - 0.0
02/06:30am 23.1 23.4 20.4 85 1.7 ESE 19 24 10 13 1014.0 - 0.0
02/06:00am 23.9 24.8 22.0 89 1.3 E 20 24 11 13 1013.6 1013.6 0.0
02/05:30am 24.0 24.8 22.4 91 1.1 E 22 26 12 14 1013.5 - 0.0
02/05:00am 24.2 24.7 22.6 91 1.1 E 24 28 13 15 1013.4 - 0.0
02/04:30am 24.1 24.1 22.4 90 1.1 E 26 30 14 16 1013.5 - 0.0
02/04:00am 24.4 24.1 22.5 89 1.3 E 28 35 15 19 1013.7 - 0.0
02/03:30am 24.5 23.5 22.7 90 1.2 E 32 37 17 20 1013.6 - 0.0
02/03:00am 24.6 23.5 22.5 88 1.4 E 32 37 17 20 1013.6 1013.6 0.0
02/02:30am 24.8 24.4 22.3 86 1.7 E 28 32 15 17 1013.6 - 0.0
02/02:00am 24.8 23.9 21.5 82 2.2 E 28 35 15 19 1013.9 - 0.0
02/01:30am 25.0 25.4 21.7 82 2.2 E 22 26 12 14 1014.1 - 0.0
02/01:00am 24.9 24.7 21.2 80 2.4 E 24 28 13 15 1014.2 - 0.0
02/12:30am 25.2 24.8 21.7 81 2.3 E 26 28 14 15 1014.4 - 0.0
02/12:00am 24.8 25.0 21.3 81 2.3 E 22 28 12 15 1014.2 1014.2 0.0
 
Date/Time
CST
Temp
°C
App
Temp
°C
Dew
Point
Rel
Hum
%
Delta-T
°C
Wind Press
QNH
hPa
Press
MSL
hPa
Rain
since 9 am
mm
Dir
 
Spd
km/h
Gust
km/h
Spd
kts
Gust
kts
01/11:30pm 25.3 26.8 22.0 82 2.2 E 17 20 9 11 1014.0 - 0.0
01/11:00pm 25.2 25.5 21.5 80 2.5 ENE 22 26 12 14 1013.9 - 0.0
01/10:30pm 25.4 24.0 21.9 81 2.3 ENE 32 37 17 20 1013.5 - 0.0
01/10:00pm 25.6 23.8 21.5 78 2.7 ENE 33 39 18 21 1013.3 - 0.0
01/09:30pm 25.7 23.8 21.4 77 2.8 ENE 33 39 18 21 1013.1 - 0.0
01/09:00pm 25.7 23.6 20.5 73 3.4 ENE 32 39 17 21 1012.7 1012.7 0.0
01/08:30pm 26.1 24.2 20.2 70 3.8 ENE 30 37 16 20 1012.4 - 0.0
01/08:00pm 25.9 24.3 20.7 73 3.4 ENE 30 33 16 18 1011.9 - 0.0
01/07:30pm 25.8 23.2 19.4 67 4.1 ENE 32 37 17 20 1011.4 - 0.0
01/07:00pm 26.0 23.4 19.4 67 4.3 ENE 32 37 17 20 1011.1 - 0.0
01/06:30pm 26.1 23.5 20.0 69 4.0 ENE 33 39 18 21 1010.8 - 0.0
01/06:00pm 26.1 22.9 18.5 63 4.8 ENE 33 37 18 20 1010.7 1010.7 0.0
01/05:30pm 26.2 23.3 18.8 63 4.7 ENE 32 37 17 20 1010.5 - 0.0
01/05:00pm 26.4 24.1 19.3 65 4.6 E 30 35 16 19 1010.5 - 0.0
01/04:30pm 26.7 23.7 18.6 61 5.2 ENE 32 35 17 19 1010.4 - 0.0
01/04:00pm 27.0 24.7 19.4 63 4.9 E 30 35 16 19 1010.5 - 0.0
01/03:30pm 27.4 24.8 18.7 59 5.6 E 30 35 16 19 1010.5 - 0.0
01/03:00pm 28.1 25.7 17.3 52 6.8 ESE 26 32 14 17 1011.0 1011.0 0.0
01/02:30pm 28.0 25.4 16.9 51 6.9 E 26 32 14 17 1011.3 - 0.0
01/02:00pm 28.5 26.6 16.7 48 7.4 ESE 22 30 12 16 1011.7 - 0.0
01/01:30pm 29.0 26.5 17.2 49 7.4 ESE 26 33 14 18 1012.1 - 0.0
01/01:00pm 28.0 27.5 19.2 58 5.7 ESE 20 26 11 14 1012.6 - 0.0
01/12:30pm 27.8 27.5 19.6 61 5.3 ESE 20 26 11 14 1013.0 - 0.0
01/12:00pm 27.3 28.1 21.3 69 4.0 E 19 24 10 13 1013.4 1013.4 0.0
01/11:30am 27.6 27.5 19.9 63 5.0 ESE 20 28 11 15 1013.7 - 0.0
01/11:00am 28.0 28.3 20.3 63 5.1 SE 19 24 10 13 1014.1 - 0.0
01/10:30am 26.8 27.2 21.8 74 3.3 E 22 26 12 14 1014.6 - 0.0
01/10:00am 25.9 26.5 21.3 76 3.0 ESE 20 24 11 13 1015.0 - 0.0
01/09:30am 26.1 27.0 22.0 78 2.7 ESE 20 22 11 12 1015.0 - 0.0
01/09:00am 25.6 27.5 21.3 77 2.8 E 13 15 7 8 1014.8 1014.8 0.0
01/08:30am 25.4 27.4 21.5 79 2.6 E 13 17 7 9 1014.6 - 0.0
01/08:00am 25.0 26.9 21.3 80 2.4 ESE 13 19 7 10 1014.7 - 0.0
01/07:30am 24.5 25.0 21.2 82 2.2 E 20 24 11 13 1014.3 - 0.0
01/07:00am 24.4 25.3 21.9 86 1.7 E 20 22 11 12 1013.9 - 0.0
01/06:30am 24.2 24.2 21.7 86 1.7 E 24 28 13 15 1013.5 - 0.0
01/06:00am 24.3 24.2 22.2 88 1.4 E 26 30 14 16 1013.3 1013.3 0.0
01/05:30am 24.3 24.0 22.6 90 1.1 E 28 33 15 18 1013.1 - 0.0
01/05:00am 24.5 23.4 22.9 91 1.1 E 33 39 18 21 1012.9 - 0.0
01/04:30am 24.6 22.7 22.1 86 1.7 E 35 41 19 22 1012.7 - 0.0
01/04:00am 24.8 24.0 23.0 90 1.2 E 32 37 17 20 1012.7 - 0.0
01/03:30am 24.7 23.8 22.8 89 1.3 E 32 37 17 20 1012.5 - 0.0
01/03:00am 24.9 24.1 23.1 90 1.2 E 32 37 17 20 1012.8 1012.8 0.0
01/02:30am 24.7 23.9 23.1 91 1.1 E 32 35 17 19 1012.8 - 0.0
01/02:00am 25.0 24.5 23.6 92 1.0 ENE 32 37 17 20 1013.1 - 0.0
01/01:30am 24.8 23.8 23.0 90 1.2 ENE 33 37 18 20 1013.2 - 0.0
01/01:00am 25.1 25.0 23.5 91 1.1 E 30 35 16 19 1013.4 - 0.0
01/12:30am 25.0 25.0 23.1 89 1.3 E 28 30 15 16 1013.3 - 0.0
01/12:00am 24.8 25.5 22.9 89 1.3 ENE 24 28 13 15 1013.2 1013.2 0.0
 
Date/Time
CST
Temp
°C
App
Temp
°C
Dew
Point
Rel
Hum
%
Delta-T
°C
Wind Press
QNH
hPa
Press
MSL
hPa
Rain
since 9 am
mm
Dir
 
Spd
km/h
Gust
km/h
Spd
kts
Gust
kts
31/11:30pm 25.3 25.7 23.2 88 1.4 ENE 26 30 14 16 1012.9 - 0.0
31/11:00pm 25.0 25.5 22.7 87 1.5 ENE 24 28 13 15 1012.9 - 0.0
31/10:30pm 25.1 25.6 22.6 86 1.7 ENE 24 30 13 16 1012.8 - 0.0
31/10:00pm 25.1 25.1 22.4 85 1.8 ENE 26 30 14 16 1012.7 - 0.0
31/09:30pm 25.0 24.1 22.1 84 1.9 ENE 30 33 16 18 1012.4 - 0.0
31/09:00pm 25.3 24.8 22.2 83 2.1 ENE 28 30 15 16 1012.0 1012.0 0.0
31/08:30pm 25.3 24.9 21.6 80 2.5 ENE 26 30 14 16 1011.6 - 0.0
31/08:00pm 25.7 25.9 22.0 80 2.5 ENE 24 28 13 15 1011.4 - 0.0
31/07:30pm 25.6 24.5 21.1 76 3.0 ENE 28 32 15 17 1011.0 - 0.0
31/07:00pm 25.5 24.1 20.5 74 3.3 ENE 28 33 15 18 1010.6 - 0.0
31/06:30pm 25.6 24.9 21.1 76 3.0 ENE 26 30 14 16 1010.3 - 0.0
31/06:00pm 25.5 23.7 20.3 73 3.4 ENE 30 33 16 18 1010.0 1010.0 0.0
31/05:30pm 25.8 24.1 19.9 70 3.8 ENE 28 32 15 17 1010.0 - 0.0
31/05:00pm 26.2 24.3 18.6 63 4.8 E 26 30 14 16 1009.9 - 0.0
31/04:30pm 26.2 25.1 20.3 70 3.9 E 26 30 14 16 1010.0 - 0.0
31/04:00pm 26.4 25.9 20.7 71 3.7 E 24 28 13 15 1010.4 - 0.0
31/03:30pm 26.4 25.6 20.9 72 3.6 E 26 30 14 16 1010.4 - 0.0
31/03:00pm 26.3 25.8 19.9 68 4.2 E 22 28 12 15 1010.5 1010.5 0.0
31/02:30pm 26.0 26.0 21.0 74 3.3 E 22 26 12 14 1010.9 - 0.0
31/02:00pm 26.5 26.4 20.8 71 3.8 E 22 28 12 15 1011.2 - 0.0
31/01:30pm 27.0 27.1 21.1 70 3.9 ESE 22 28 12 15 1011.4 - 0.0
31/01:00pm 26.0 25.6 21.0 74 3.3 E 24 28 13 15 1011.9 - 0.0
31/12:30pm 26.1 26.2 21.1 74 3.3 ESE 22 28 12 15 1012.2 - 0.0
31/12:00pm 26.6 26.8 22.0 76 3.1 E 24 28 13 15 1012.7 1012.7 0.0
31/11:30am 27.0 27.7 21.5 72 3.7 ESE 20 30 11 16 1013.1 - 0.0
31/11:00am 27.5 27.7 20.6 66 4.5 ESE 20 28 11 15 1013.5 - 0.0
31/10:30am 27.1 27.4 20.7 68 4.2 ESE 20 28 11 15 1013.8 - 0.0
31/10:00am 26.2 25.5 19.6 67 4.3 ESE 22 30 12 16 1013.9 - 0.0
31/09:30am 25.5 25.8 21.6 79 2.6 ESE 22 24 12 13 1014.1 - 0.0
31/09:00am 25.3 25.4 21.2 78 2.7 ESE 22 24 12 13 1014.2 1014.2 0.0
31/08:30am 24.8 24.8 20.9 79 2.6 ESE 22 26 12 14 1014.0 - 0.0
31/08:00am 24.9 25.2 21.6 82 2.2 E 22 26 12 14 1013.8 - 0.0
31/07:30am 24.6 24.3 21.1 81 2.3 E 24 28 13 15 1013.4 - 0.0
31/07:00am 24.3 24.2 20.8 81 2.3 ESE 22 26 12 14 1013.1 - 0.0
31/06:30am 23.9 23.7 19.8 78 2.6 ESE 20 26 11 14 1012.7 - 0.0
31/06:00am 24.0 23.8 19.7 77 2.8 ESE 20 24 11 13 1012.5 1012.5 0.0
31/05:30am 24.2 23.2 19.7 76 2.9 ESE 24 26 13 14 1012.4 - 0.0
31/05:00am 24.5 23.5 20.4 78 2.7 E 26 28 14 15 1012.4 - 0.0
31/04:30am 24.2 23.0 20.1 78 2.7 E 26 30 14 16 1012.4 - 0.0
31/04:00am 24.3 23.1 20.0 77 2.8 E 26 32 14 17 1012.5 - 0.0
31/03:30am 24.5 22.9 20.0 76 2.9 E 28 32 15 17 1012.4 - 0.0
31/03:00am 24.6 22.2 19.2 72 3.5 E 30 33 16 18 1012.4 1012.4 0.0
31/02:30am 24.8 22.2 19.8 74 3.2 E 33 39 18 21 1012.5 - 0.0
31/02:00am 24.9 21.9 20.6 77 2.8 E 37 43 20 23 1012.7 - 0.0
31/01:30am 25.0 22.7 21.3 80 2.4 E 35 43 19 23 1012.9 - 0.0
31/01:00am 24.7 22.9 21.6 83 2.1 E 33 37 18 20 1013.0 - 0.0
31/12:30am 24.9 24.1 23.1 90 1.2 E 32 35 17 19 1013.3 - 0.0
31/12:00am 24.8 25.1 22.9 89 1.3 E 26 30 14 16 1013.2 1013.2 0.0
 
Date/Time
CST
Temp
°C
App
Temp
°C
Dew
Point
Rel
Hum
%
Delta-T
°C
Wind Press
QNH
hPa
Press
MSL
hPa
Rain
since 9 am
mm
Dir
 
Spd
km/h
Gust
km/h
Spd
kts
Gust
kts
30/11:30pm 25.0 26.1 23.1 89 1.3 E 22 26 12 14 1013.2 - 0.0
30/11:00pm 24.8 26.6 23.2 91 1.1 E 19 20 10 11 1013.1 - 0.0
30/10:30pm 24.8 26.5 23.4 92 1.0 E 20 22 11 12 1013.0 - 0.0
30/10:00pm 25.2 27.4 24.2 94 0.7 ENE 20 24 11 13 1012.8 - 0.0
30/09:30pm 24.9 26.7 23.5 92 1.0 ENE 20 24 11 13 1012.6 - 0.0
30/09:00pm 24.8 25.2 23.2 91 1.1 ENE 26 30 14 16 1012.4 1012.4 0.0
30/08:30pm 24.7 24.7 23.1 91 1.1 ENE 28 32 15 17 1012.2 - 0.0
30/08:00pm 24.7 24.7 23.1 91 1.1 ENE 28 33 15 18 1011.9 - 0.0
30/07:30pm 24.7 24.8 22.6 88 1.4 ENE 26 32 14 17 1011.6 - 0.0
30/07:00pm 24.8 24.4 22.3 86 1.7 ENE 28 33 15 18 1011.4 - 0.0
30/06:30pm 25.0 24.8 22.7 87 1.5 ENE 28 32 15 17 1011.0 - 0.0
30/06:00pm 24.9 23.8 21.8 83 2.1 ENE 30 33 16 18 1010.9 1010.9 0.0
30/05:30pm 25.5 24.9 22.0 81 2.3 ENE 28 32 15 17 1010.7 - 0.0
30/05:00pm 25.5 25.0 21.4 78 2.7 ENE 26 30 14 16 1010.5 - 0.0
30/04:30pm 25.4 24.8 20.6 75 3.1 ENE 24 26 13 14 1010.7 - 0.0
30/04:00pm 25.4 25.4 20.9 76 3.0 ENE 22 26 12 14 1010.8 - 0.0
30/03:30pm 25.6 25.8 21.3 77 2.8 E 22 28 12 15 1011.1 - 0.0
30/03:00pm 25.8 25.6 21.2 76 3.0 E 24 28 13 15 1011.3 1011.3 0.0
30/02:30pm 26.1 25.6 20.7 72 3.5 ESE 24 28 13 15 1011.7 - 0.0
30/02:00pm 26.2 25.6 19.8 68 4.1 E 22 30 12 16 1012.2 - 0.0
30/01:30pm 26.8 26.8 20.9 70 3.9 E 22 28 12 15 1012.6 - 0.0
30/01:00pm 26.7 26.5 20.5 69 4.1 ESE 22 32 12 17 1013.1 - 0.0
30/12:30pm 26.7 27.0 20.8 70 3.9 ESE 20 28 11 15 1013.7 - 0.0
30/12:00pm 26.3 26.4 20.4 70 3.9 ESE 20 28 11 15 1014.0 1014.0 0.0
30/11:30am 26.1 26.1 20.2 70 3.8 ESE 20 30 11 16 1014.7 - 0.0
30/11:00am 26.7 26.7 19.8 66 4.5 SE 19 24 10 13 1015.0 - 0.0
30/10:30am 26.4 26.5 20.0 68 4.2 SE 19 26 10 14 1015.2 - 0.0
30/10:00am 26.5 26.9 20.6 70 3.9 SE 19 26 10 14 1015.4 - 0.0
30/09:30am 26.3 26.4 20.4 70 3.9 ESE 20 28 11 15 1015.3 - 0.0
30/09:00am 25.5 25.3 20.5 74 3.3 ESE 22 28 12 15 1015.2 1015.2 0.0

Other Formats:

Comma delimited format used in spreadsheet applications
http://www.bom.gov.au/fwo/IDD60801/IDD60801.94135.axf

JavaScript Object Notation format (JSON) in row-major order
http://www.bom.gov.au/fwo/IDD60801/IDD60801.94135.json